Time;durP1;ratioP1;P1;durP2;ratioP2;P2;SDS_P1;SDS_P2;PMS_P1;PMS_P2;Temp;Humidity;BMP_temperature;BMP_pressure;BME280_temperature;BME280_humidity;BME280_pressure;Samples;Min_cycle;Max_cycle;Signal;HPM_P1;HPM_P2
2023/03/08 00:02:12;;;;;;;15.68;11.00;;;2.50;99.90;;;;;;2610174;47;20103;31
2023/03/08 00:04:48;;;;;;;17.80;11.13;;;2.50;99.90;;;;;;2617758;47;20069;31
2023/03/08 00:07:24;;;;;;;17.60;10.80;;;2.50;99.90;;;;;;2602869;54;20076;31
2023/03/08 00:09:59;;;;;;;16.95;10.85;;;2.50;99.90;;;;;;2621176;47;20878;31
2023/03/08 00:12:35;;;;;;;15.47;10.90;;;2.50;99.90;;;;;;2602301;54;20815;31
2023/03/08 00:15:14;;;;;;;16.90;11.05;;;2.50;99.90;;;;;;2602133;54;20262;31
2023/03/08 00:17:49;;;;;;;20.58;12.20;;;2.40;99.90;;;;;;2621219;47;20101;31
2023/03/08 00:20:24;;;;;;;20.65;11.05;;;2.40;99.90;;;;;;2602842;54;20118;31
2023/03/08 00:23:02;;;;;;;17.15;10.85;;;2.40;99.90;;;;;;2603118;54;20077;31
2023/03/08 00:25:38;;;;;;;20.35;12.15;;;2.30;99.90;;;;;;2602969;54;20818;31
2023/03/08 00:28:13;;;;;;;16.95;11.30;;;2.40;99.90;;;;;;2602942;54;20033;31
2023/03/08 00:30:57;;;;;;;18.93;11.80;;;2.30;99.90;;;;;;2603429;54;20069;31
2023/03/08 00:33:32;;;;;;;19.70;11.63;;;2.30;99.90;;;;;;2603799;54;20030;31
2023/03/08 00:36:13;;;;;;;19.63;11.13;;;2.30;99.90;;;;;;2603750;54;19962;31
2023/03/08 00:38:49;;;;;;;16.83;10.75;;;2.30;99.90;;;;;;2602873;54;20143;31
2023/03/08 00:41:29;;;;;;;15.50;9.97;;;2.30;99.90;;;;;;2603617;54;19934;31
2023/03/08 00:44:07;;;;;;;18.80;10.45;;;2.30;99.90;;;;;;2603579;54;20862;31
2023/03/08 00:46:41;;;;;;;16.45;10.43;;;2.30;99.90;;;;;;2603583;54;20037;31
2023/03/08 00:49:21;;;;;;;15.70;10.05;;;2.30;99.90;;;;;;2622291;46;20027;31
2023/03/08 00:51:58;;;;;;;13.60;8.98;;;2.30;99.90;;;;;;2603614;54;19935;31
2023/03/08 00:54:34;;;;;;;17.40;10.75;;;2.20;99.90;;;;;;2622216;46;20084;31
2023/03/08 00:57:09;;;;;;;16.33;10.90;;;2.20;99.90;;;;;;2621790;46;25030;31
2023/03/08 00:59:46;;;;;;;17.60;10.93;;;2.20;99.90;;;;;;2603814;54;20671;31
2023/03/08 01:02:22;;;;;;;18.60;11.85;;;2.20;99.90;;;;;;2603889;54;20061;31
2023/03/08 01:05:02;;;;;;;21.53;13.17;;;2.20;99.90;;;;;;2603485;54;24070;31
2023/03/08 01:07:39;;;;;;;19.83;12.80;;;2.20;99.90;;;;;;2603441;54;19934;31
2023/03/08 01:10:15;;;;;;;20.35;12.73;;;2.20;99.90;;;;;;2603627;54;20948;31
2023/03/08 01:12:53;;;;;;;18.03;11.40;;;2.20;99.90;;;;;;2622238;46;20026;31
2023/03/08 01:15:29;;;;;;;19.80;12.07;;;2.20;99.90;;;;;;2603841;54;20042;31
2023/03/08 01:18:06;;;;;;;18.75;11.82;;;2.20;99.90;;;;;;2702004;39;20557;31
2023/03/08 01:20:47;;;;;;;19.77;11.48;;;2.20;99.90;;;;;;2622125;46;20077;31
2023/03/08 01:23:25;;;;;;;17.02;10.45;;;2.10;99.90;;;;;;2603137;54;20882;31
2023/03/08 01:26:03;;;;;;;13.83;9.53;;;2.10;99.90;;;;;;2603665;54;20022;31
2023/03/08 01:28:39;;;;;;;15.70;9.68;;;2.00;99.90;;;;;;2603644;54;20414;31
2023/03/08 01:31:16;;;;;;;14.10;8.67;;;2.10;99.90;;;;;;2603664;54;20064;31
2023/03/08 01:33:52;;;;;;;11.80;8.07;;;2.00;99.90;;;;;;2603741;54;20239;31
2023/03/08 01:36:32;;;;;;;13.35;8.18;;;2.00;99.90;;;;;;2622031;46;20026;31
2023/03/08 01:39:10;;;;;;;12.45;8.30;;;2.10;99.90;;;;;;2603447;54;20770;31
2023/03/08 01:41:50;;;;;;;11.30;7.55;;;2.00;99.90;;;;;;2603309;54;20042;31
2023/03/08 01:44:25;;;;;;;12.60;7.38;;;2.00;99.90;;;;;;2603651;54;20038;31
2023/03/08 01:47:01;;;;;;;11.35;7.28;;;1.90;99.90;;;;;;2603531;54;20796;31
2023/03/08 01:49:49;;;;;;;9.43;6.40;;;1.90;99.90;;;;;;2603423;54;20030;31
2023/03/08 01:52:28;;;;;;;11.73;6.40;;;1.90;99.90;;;;;;2603470;54;20925;31
2023/03/08 01:55:05;;;;;;;9.23;6.03;;;1.90;99.90;;;;;;2603465;54;20061;31
2023/03/08 01:57:44;;;;;;;9.30;5.78;;;1.90;99.90;;;;;;2603314;54;20998;31
2023/03/08 02:00:22;;;;;;;9.07;5.85;;;1.80;99.90;;;;;;2603372;54;20027;31
2023/03/08 02:03:00;;;;;;;9.65;6.30;;;1.80;99.90;;;;;;2603374;54;20027;31
2023/03/08 02:05:38;;;;;;;10.07;6.13;;;1.70;99.90;;;;;;2603374;54;20027;31
2023/03/08 02:08:25;;;;;;;9.75;6.10;;;1.70;99.90;;;;;;2603379;54;20899;31
2023/03/08 02:11:03;;;;;;;13.00;6.40;;;1.70;99.90;;;;;;2701059;39;21373;31
2023/03/08 02:13:40;;;;;;;9.50;6.47;;;1.60;99.90;;;;;;2621856;46;20580;31
2023/03/08 02:16:17;;;;;;;9.70;6.35;;;1.60;99.90;;;;;;2603371;54;20141;31
2023/03/08 02:18:55;;;;;;;9.50;5.57;;;1.60;99.90;;;;;;2603308;54;20176;31
2023/03/08 02:21:33;;;;;;;9.45;6.05;;;1.60;99.90;;;;;;2764985;31;20026;31
2023/03/08 02:24:20;;;;;;;9.18;4.95;;;1.50;99.90;;;;;;2603230;54;20044;31
2023/03/08 02:26:57;;;;;;;9.63;4.85;;;1.60;99.90;;;;;;2603502;54;20117;31
2023/03/08 02:29:35;;;;;;;8.18;3.75;;;1.50;99.90;;;;;;2603380;54;20125;31
2023/03/08 02:32:10;;;;;;;4.15;2.80;;;1.50;99.90;;;;;;2603488;54;20061;31
2023/03/08 02:34:48;;;;;;;6.95;3.05;;;1.50;99.90;;;;;;2603369;54;20077;31
2023/03/08 02:37:24;;;;;;;6.55;2.92;;;1.50;99.90;;;;;;2621758;46;20057;31
2023/03/08 02:40:03;;;;;;;6.90;2.75;;;1.40;99.90;;;;;;2603390;54;20050;31
2023/03/08 02:42:39;;;;;;;6.05;2.72;;;1.40;99.90;;;;;;2620906;46;20054;31
2023/03/08 02:45:16;;;;;;;7.40;2.80;;;1.40;99.90;;;;;;2603393;54;20049;31
2023/03/08 02:47:52;;;;;;;6.10;2.85;;;1.30;99.90;;;;;;2603249;54;20275;31
2023/03/08 02:50:30;;;;;;;11.25;3.10;;;1.40;99.90;;;;;;2701827;39;21382;31
2023/03/08 02:53:05;;;;;;;5.97;2.47;;;1.40;99.90;;;;;;2621713;46;20140;31
2023/03/08 02:55:48;;;;;;;7.63;3.05;;;1.40;99.90;;;;;;2621246;47;20870;31
2023/03/08 02:58:24;;;;;;;4.38;2.28;;;1.40;99.90;;;;;;2603452;54;20469;31
2023/03/08 03:01:00;;;;;;;6.32;2.63;;;1.40;99.90;;;;;;2603413;54;20026;31
2023/03/08 03:03:39;;;;;;;4.60;2.53;;;1.40;99.90;;;;;;2603244;54;20057;31
2023/03/08 03:06:17;;;;;;;5.45;2.85;;;1.40;99.90;;;;;;2603517;54;20105;31
2023/03/08 03:08:55;;;;;;;7.70;3.08;;;1.40;99.90;;;;;;2603198;54;20130;31
2023/03/08 03:11:35;;;;;;;9.40;3.10;;;1.40;99.90;;;;;;2603537;54;20886;31
2023/03/08 03:14:10;;;;;;;7.63;2.90;;;1.40;99.90;;;;;;2602996;54;20806;31
2023/03/08 03:16:49;;;;;;;8.02;2.80;;;1.50;99.90;;;;;;2603383;54;20026;31
2023/03/08 03:19:24;;;;;;;10.23;3.20;;;1.50;99.90;;;;;;2621211;46;20029;31
2023/03/08 03:22:02;;;;;;;5.63;3.58;;;1.50;99.90;;;;;;2603454;54;20868;31
2023/03/08 03:24:42;;;;;;;6.25;3.42;;;1.50;99.90;;;;;;2603017;54;20904;31
2023/03/08 03:27:26;;;;;;;8.20;3.25;;;1.50;99.90;;;;;;2603168;54;20768;31
2023/03/08 03:30:01;;;;;;;4.88;2.75;;;1.50;99.90;;;;;;2603104;54;20576;31
2023/03/08 03:32:38;;;;;;;7.28;3.70;;;1.50;99.90;;;;;;2602621;54;20875;31
2023/03/08 03:35:15;;;;;;;5.60;2.97;;;1.50;99.90;;;;;;2701262;39;20396;31
2023/03/08 03:37:53;;;;;;;7.30;3.37;;;1.50;99.90;;;;;;2602984;54;20935;31
2023/03/08 03:40:28;;;;;;;5.60;3.50;;;1.50;99.90;;;;;;2603164;54;20247;31
2023/03/08 03:43:12;;;;;;;6.90;3.03;;;1.50;99.90;;;;;;2602339;54;20140;31
2023/03/08 03:45:57;;;;;;;5.05;3.75;;;1.50;99.90;;;;;;2603018;54;20033;31
2023/03/08 03:48:33;;;;;;;7.63;3.40;;;1.60;99.90;;;;;;2603180;54;20054;31
2023/03/08 03:51:11;;;;;;;10.53;3.00;;;1.50;99.90;;;;;;2603015;54;20217;31
2023/03/08 03:53:52;;;;;;;7.80;3.30;;;1.50;99.90;;;;;;2602985;54;20631;31
2023/03/08 03:56:30;;;;;;;6.65;2.70;;;1.50;99.90;;;;;;2602759;54;20820;31
2023/03/08 03:59:11;;;;;;;7.05;3.95;;;1.50;99.90;;;;;;2621432;47;20034;31
2023/03/08 04:01:46;;;;;;;8.13;3.47;;;1.40;99.90;;;;;;2603097;54;20057;31
2023/03/08 04:04:33;;;;;;;;;;;1.50;99.90;;;;;;2603212;54;20027;31
2023/03/08 04:07:09;;;;;;;7.30;3.25;;;1.50;99.90;;;;;;2603832;54;20745;31
2023/03/08 04:09:49;;;;;;;10.73;3.55;;;1.50;99.90;;;;;;2702365;39;20537;31
2023/03/08 04:12:23;;;;;;;;;;;1.50;99.90;;;;;;2604125;54;20913;31
2023/03/08 04:15:02;;;;;;;6.82;3.75;;;1.50;99.90;;;;;;2603868;54;20045;31
2023/03/08 04:17:40;;;;;;;9.60;3.10;;;1.50;99.90;;;;;;2603963;54;20030;31
2023/03/08 04:20:15;;;;;;;;;;;1.40;99.90;;;;;;2604151;54;20030;31
2023/03/08 04:22:59;;;;;;;7.80;3.50;;;1.40;99.90;;;;;;2603752;54;20843;31
2023/03/08 04:25:41;;;;;;;7.95;3.35;;;1.40;99.90;;;;;;2603713;54;20785;31
2023/03/08 04:28:22;;;;;;;7.85;3.20;;;1.40;99.90;;;;;;2603866;54;20582;31
2023/03/08 04:31:12;;;;;;;12.60;3.80;;;1.40;99.90;;;;;;2702536;39;21039;31
2023/03/08 04:33:50;;;;;;;8.32;3.65;;;1.30;99.90;;;;;;2621983;46;20045;31
2023/03/08 04:36:26;;;;;;;7.53;3.85;;;1.40;99.90;;;;;;2702208;39;20458;31
2023/03/08 04:39:04;;;;;;;6.88;3.80;;;1.40;99.90;;;;;;2603912;54;20891;31
2023/03/08 04:41:40;;;;;;;12.13;4.18;;;1.40;99.90;;;;;;2603679;54;20904;31
2023/03/08 04:44:27;;;;;;;9.30;3.90;;;1.40;99.90;;;;;;2603562;54;20042;31
2023/03/08 04:49:47;;;;;;;12.67;5.00;;;1.40;99.90;;;;;;2603768;54;20027;31
2023/03/08 04:52:24;;;;;;;9.87;4.83;;;1.30;99.90;;;;;;2602905;54;21154;31
2023/03/08 04:55:02;;;;;;;16.75;6.28;;;1.30;99.90;;;;;;2602878;54;20864;31
2023/03/08 04:57:38;;;;;;;13.68;5.63;;;1.40;99.90;;;;;;2622332;46;20883;31
2023/03/08 05:00:20;;;;;;;8.75;5.20;;;1.30;99.90;;;;;;2603036;54;20784;31
2023/03/08 05:02:58;;;;;;;12.55;5.38;;;1.30;99.90;;;;;;2602874;54;20105;31
2023/03/08 05:05:37;;;;;;;13.80;5.60;;;1.30;99.90;;;;;;2603588;54;21009;31
2023/03/08 05:08:15;;;;;;;19.77;5.82;;;1.30;99.90;;;;;;2603731;54;20037;31
2023/03/08 05:10:50;;;;;;;10.68;4.90;;;1.30;99.90;;;;;;2702195;39;20566;31
2023/03/08 05:13:27;;;;;;;10.73;5.20;;;1.30;99.90;;;;;;2603767;54;20576;31
2023/03/08 05:16:03;;;;;;;11.23;5.10;;;1.40;99.90;;;;;;2603494;54;20052;31
2023/03/08 05:18:43;;;;;;;18.03;5.63;;;1.30;99.90;;;;;;2603272;54;20239;31
2023/03/08 05:21:23;;;;;;;16.50;6.05;;;1.20;99.90;;;;;;2603784;54;20050;31
2023/03/08 05:24:07;;;;;;;11.43;6.03;;;1.30;99.90;;;;;;2603763;54;20067;31
2023/03/08 05:26:47;;;;;;;11.05;5.65;;;1.30;99.90;;;;;;2701958;39;21444;31
2023/03/08 05:32:07;;;;;;;17.25;7.10;;;1.30;99.90;;;;;;2603460;54;20085;31
2023/03/08 05:34:45;;;;;;;14.95;6.80;;;1.40;99.90;;;;;;2603556;54;20072;31
2023/03/08 05:37:31;;;;;;;16.30;7.50;;;1.40;99.90;;;;;;2622337;46;20891;31
2023/03/08 05:40:12;;;;;;;19.02;7.85;;;1.40;99.90;;;;;;2702093;39;20545;31
2023/03/08 05:42:50;;;;;;;18.45;7.93;;;1.40;99.90;;;;;;2603666;54;20874;31
2023/03/08 05:45:25;;;;;;;13.60;6.73;;;1.40;99.90;;;;;;2603655;54;20108;31
2023/03/08 05:48:05;;;;;;;11.45;6.85;;;1.30;99.90;;;;;;2603514;54;20865;31
2023/03/08 05:50:42;;;;;;;17.52;7.70;;;1.40;99.90;;;;;;2603495;54;20906;31
2023/03/08 05:53:24;;;;;;;15.23;6.82;;;1.30;99.90;;;;;;2603483;54;20950;31
2023/03/08 05:56:10;;;;;;;12.83;6.93;;;1.30;99.90;;;;;;2603546;54;20033;31
2023/03/08 05:58:50;;;;;;;19.30;7.32;;;1.40;99.90;;;;;;2622204;46;20894;31
2023/03/08 06:01:27;;;;;;;14.70;6.88;;;1.40;99.90;;;;;;2621676;46;20022;31
2023/03/08 06:04:12;;;;;;;12.70;6.00;;;1.40;99.90;;;;;;2603359;54;20022;31
2023/03/08 06:06:50;;;;;;;10.10;5.75;;;1.40;99.90;;;;;;2603433;54;20117;31
2023/03/08 06:09:33;;;;;;;14.25;6.68;;;1.40;99.90;;;;;;2602560;54;19934;31
2023/03/08 06:12:13;;;;;;;13.43;6.25;;;1.50;99.90;;;;;;2603526;54;20064;31
2023/03/08 06:14:56;;;;;;;11.38;6.18;;;1.50;99.90;;;;;;2603649;54;20085;31
2023/03/08 06:17:39;;;;;;;16.00;6.82;;;1.50;99.90;;;;;;2603328;54;20029;31
2023/03/08 06:20:17;;;;;;;12.23;5.88;;;1.50;99.90;;;;;;2603315;54;20822;31
2023/03/08 06:22:57;;;;;;;11.40;5.40;;;1.60;99.90;;;;;;2622027;46;20031;31
2023/03/08 06:25:38;;;;;;;10.20;5.50;;;1.60;99.90;;;;;;2602799;54;20807;31
2023/03/08 06:28:14;;;;;;;14.93;6.55;;;1.60;99.90;;;;;;2621793;46;20037;31
2023/03/08 06:30:52;;;;;;;10.85;6.93;;;1.70;99.90;;;;;;2603421;54;20914;31
2023/03/08 06:33:26;;;;;;;13.35;6.80;;;1.60;99.90;;;;;;2603583;54;20038;31
2023/03/08 06:36:05;;;;;;;13.27;7.70;;;1.70;99.90;;;;;;2603595;54;20033;31
2023/03/08 06:38:41;;;;;;;14.82;7.53;;;1.70;99.90;;;;;;2603313;54;20027;31
2023/03/08 06:41:21;;;;;;;19.10;8.45;;;1.70;99.90;;;;;;2603283;54;20088;31
2023/03/08 06:44:02;;;;;;;13.05;7.68;;;1.80;99.90;;;;;;2603280;54;20022;31
2023/03/08 06:46:37;;;;;;;13.05;6.60;;;1.80;99.90;;;;;;2602499;54;20051;31
2023/03/08 06:49:15;;;;;;;12.48;5.93;;;1.80;99.90;;;;;;2602616;54;20109;31
2023/03/08 06:51:51;;;;;;;12.65;6.35;;;1.90;99.90;;;;;;2602487;54;20055;31
2023/03/08 06:54:30;;;;;;;10.73;5.57;;;1.90;99.90;;;;;;2701053;39;21175;31
2023/03/08 06:57:09;;;;;;;11.27;4.85;;;2.00;99.90;;;;;;2603424;54;20042;31
2023/03/08 06:59:47;;;;;;;14.88;5.85;;;2.00;99.90;;;;;;2603273;54;20915;31
2023/03/08 07:02:22;;;;;;;9.90;5.55;;;2.10;99.90;;;;;;2603240;54;20090;31
2023/03/08 07:04:57;;;;;;;11.13;5.97;;;2.20;99.90;;;;;;2620186;46;20027;31
2023/03/08 07:07:34;;;;;;;9.15;5.72;;;2.20;99.90;;;;;;2621657;46;20105;31
2023/03/08 07:10:13;;;;;;;10.13;5.03;;;2.20;99.90;;;;;;2602437;54;20815;31
2023/03/08 07:12:52;;;;;;;11.55;6.03;;;2.30;99.90;;;;;;2603206;54;20030;31
2023/03/08 07:15:27;;;;;;;13.05;6.13;;;2.40;99.90;;;;;;2603277;54;19938;31
2023/03/08 07:18:04;;;;;;;9.38;5.63;;;2.50;99.90;;;;;;2603176;54;20030;31
2023/03/08 07:20:40;;;;;;;9.50;5.50;;;2.60;99.90;;;;;;2603237;54;20069;31
2023/03/08 07:23:17;;;;;;;12.32;6.28;;;2.60;99.90;;;;;;2603186;54;20032;31
2023/03/08 07:25:55;;;;;;;8.60;5.38;;;2.70;99.90;;;;;;2603300;54;19997;31
2023/03/08 07:28:31;;;;;;;9.00;5.13;;;2.80;99.90;;;;;;2621493;46;20022;31
2023/03/08 07:31:14;;;;;;;9.75;4.90;;;3.00;99.90;;;;;;2603259;54;20081;31
2023/03/08 07:33:50;;;;;;;8.77;5.37;;;3.10;99.90;;;;;;2720031;39;20509;31
2023/03/08 07:36:25;;;;;;;9.27;5.03;;;3.10;99.90;;;;;;2603338;54;20023;31
2023/03/08 07:39:04;;;;;;;16.38;5.63;;;3.10;99.90;;;;;;2621599;47;20568;31
2023/03/08 07:41:39;;;;;;;12.05;5.15;;;3.20;99.90;;;;;;2603639;54;20038;31
2023/03/08 07:44:13;;;;;;;9.63;5.15;;;3.20;99.90;;;;;;2720815;39;21211;31
2023/03/08 07:46:53;;;;;;;10.20;5.20;;;3.30;99.90;;;;;;2604003;54;20848;31
2023/03/08 07:49:31;;;;;;;8.80;5.25;;;3.30;99.90;;;;;;2603699;54;20063;31
2023/03/08 07:52:07;;;;;;;11.00;6.10;;;3.30;99.90;;;;;;2603709;54;20030;31
2023/03/08 07:54:43;;;;;;;10.63;6.55;;;3.40;99.90;;;;;;2622528;46;20087;31
2023/03/08 07:57:19;;;;;;;15.55;7.18;;;3.40;99.90;;;;;;2617888;46;20129;31
2023/03/08 07:59:58;;;;;;;10.10;5.88;;;3.40;99.90;;;;;;2603772;54;20874;31
2023/03/08 08:02:33;;;;;;;13.52;6.22;;;3.50;99.90;;;;;;2603682;54;20029;31
2023/03/08 08:05:13;;;;;;;13.55;6.38;;;3.50;99.90;;;;;;2603861;54;20027;31
2023/03/08 08:07:49;;;;;;;11.93;5.38;;;3.50;99.90;;;;;;2622329;46;20910;31
2023/03/08 08:10:25;;;;;;;11.40;5.22;;;3.60;99.90;;;;;;2622291;46;20053;31
2023/03/08 08:13:00;;;;;;;6.37;4.30;;;3.60;99.90;;;;;;2603975;54;20766;31
2023/03/08 08:15:37;;;;;;;8.65;5.05;;;3.70;99.90;;;;;;2622477;46;20577;31
2023/03/08 08:18:12;;;;;;;7.80;5.07;;;3.70;99.90;;;;;;2603733;54;20897;31
2023/03/08 08:20:53;;;;;;;9.00;5.13;;;3.70;99.90;;;;;;2604004;54;20096;31
2023/03/08 08:23:31;;;;;;;9.23;5.35;;;3.70;99.90;;;;;;2604000;54;20037;31
2023/03/08 08:26:09;;;;;;;7.50;4.95;;;3.70;99.90;;;;;;2621954;46;20089;31
2023/03/08 08:28:45;;;;;;;13.02;4.47;;;3.70;99.90;;;;;;2603655;54;20097;31
2023/03/08 08:31:21;;;;;;;;;;;3.70;99.90;;;;;;2702721;39;20492;31
2023/03/08 08:33:58;;;;;;;5.75;4.30;;;3.80;99.90;;;;;;2622613;46;19934;31
2023/03/08 08:36:36;;;;;;;9.90;5.27;;;3.80;99.90;;;;;;2720696;39;21038;31
2023/03/08 08:39:15;;;;;;;8.40;4.78;;;3.70;99.90;;;;;;2603775;54;20841;31
2023/03/08 08:42:05;;;;;;;9.95;5.55;;;3.70;99.90;;;;;;2604005;54;20821;31
2023/03/08 08:44:55;;;;;;;10.15;5.63;;;3.60;99.90;;;;;;2604046;54;20884;31
2023/03/08 08:47:31;;;;;;;10.98;6.40;;;3.70;99.90;;;;;;2622516;46;20050;31
2023/03/08 08:50:07;;;;;;;10.50;5.22;;;3.70;99.90;;;;;;2603755;54;20864;31
2023/03/08 08:52:47;;;;;;;10.27;4.80;;;3.80;99.90;;;;;;2602947;54;20053;31
2023/03/08 08:55:21;;;;;;;6.32;4.13;;;3.80;99.90;;;;;;2702189;39;22470;31
2023/03/08 08:58:00;;;;;;;7.65;4.10;;;3.80;99.90;;;;;;2604077;54;20030;31
2023/03/08 09:00:35;;;;;;;9.55;4.80;;;3.90;99.90;;;;;;2702671;39;22363;31
2023/03/08 09:03:12;;;;;;;7.93;4.07;;;4.00;99.90;;;;;;2603189;54;20104;31
2023/03/08 09:05:47;;;;;;;7.80;4.70;;;4.00;99.90;;;;;;2618842;46;21106;31
2023/03/08 09:08:25;;;;;;;8.10;4.00;;;4.00;99.90;;;;;;2702401;39;21099;31
2023/03/08 09:11:06;;;;;;;10.77;4.93;;;4.00;99.90;;;;;;2622367;46;20349;31
2023/03/08 09:13:41;;;;;;;6.70;4.40;;;4.10;99.90;;;;;;2606245;46;20834;31
2023/03/08 09:16:21;;;;;;;7.07;4.00;;;4.20;99.90;;;;;;2701729;39;22512;31
2023/03/08 09:18:59;;;;;;;9.07;4.40;;;4.30;99.90;;;;;;2603915;54;20267;31
2023/03/08 09:21:35;;;;;;;5.65;3.75;;;4.40;99.90;;;;;;2603860;54;20046;31
2023/03/08 09:24:18;;;;;;;5.32;3.65;;;4.50;99.90;;;;;;2603917;54;20037;31
2023/03/08 09:26:54;;;;;;;6.80;4.25;;;4.60;99.90;;;;;;2622214;46;19941;31
2023/03/08 09:29:33;;;;;;;7.50;3.87;;;4.50;99.90;;;;;;2603697;54;20851;31
2023/03/08 09:32:11;;;;;;;8.70;4.50;;;4.50;99.90;;;;;;2622082;46;20073;31
2023/03/08 09:34:47;;;;;;;7.28;4.40;;;4.60;99.90;;;;;;2603710;54;20905;31
2023/03/08 09:37:24;;;;;;;10.88;5.72;;;4.70;99.90;;;;;;2603461;54;20026;31
2023/03/08 09:40:08;;;;;;;8.52;5.15;;;4.70;99.90;;;;;;2603793;54;20046;31
2023/03/08 09:42:46;;;;;;;9.75;4.78;;;4.80;99.90;;;;;;2603431;54;20117;31
2023/03/08 09:45:21;;;;;;;7.20;4.85;;;4.90;99.90;;;;;;2622225;46;20034;31
2023/03/08 09:48:03;;;;;;;8.10;4.22;;;4.90;99.90;;;;;;2701143;39;20667;31
2023/03/08 09:50:41;;;;;;;9.88;5.10;;;4.80;99.90;;;;;;2602742;54;20117;31
2023/03/08 09:53:41;;;;;;;8.85;4.25;;;4.80;99.90;;;;;;2773679;31;21181;31
2023/03/08 09:56:33;;;;;;;8.80;4.47;;;4.70;99.90;;;;;;2603429;54;21350;31
2023/03/08 09:59:09;;;;;;;7.80;4.20;;;4.60;99.90;;;;;;2621957;46;20031;31
2023/03/08 10:01:47;;;;;;;11.95;4.72;;;4.70;99.90;;;;;;2603367;54;20763;31
2023/03/08 10:04:21;;;;;;;10.23;4.35;;;4.70;99.90;;;;;;2621479;46;20037;31
2023/03/08 10:07:05;;;;;;;11.75;4.60;;;4.70;99.90;;;;;;2603431;54;20023;31
2023/03/08 10:09:43;;;;;;;11.88;4.97;;;4.70;99.90;;;;;;2621952;46;20053;31
2023/03/08 10:12:25;;;;;;;9.63;6.23;;;4.70;99.90;;;;;;2603505;54;20831;31
2023/03/08 10:15:04;;;;;;;9.00;5.20;;;4.70;99.90;;;;;;2603693;54;20034;31
2023/03/08 10:17:44;;;;;;;9.30;5.20;;;4.60;99.90;;;;;;2603547;54;20116;31
2023/03/08 10:20:19;;;;;;;14.77;5.22;;;4.70;99.90;;;;;;2603726;54;20854;31
2023/03/08 10:22:59;;;;;;;9.75;5.65;;;4.80;99.90;;;;;;2602755;54;20879;31
2023/03/08 10:25:35;;;;;;;8.07;5.78;;;4.70;99.90;;;;;;2621846;46;21541;31
2023/03/08 10:28:17;;;;;;;10.75;6.45;;;4.80;99.90;;;;;;2603140;54;20811;31
2023/03/08 10:30:53;;;;;;;9.77;5.75;;;4.90;99.90;;;;;;2603675;54;20069;31
2023/03/08 10:33:33;;;;;;;8.52;5.45;;;5.00;99.90;;;;;;2603428;54;20983;31
2023/03/08 10:36:12;;;;;;;8.27;5.85;;;5.10;99.90;;;;;;2603422;54;20047;31
2023/03/08 10:38:46;;;;;;;8.55;5.63;;;5.20;99.90;;;;;;2621919;46;20025;31
2023/03/08 10:41:21;;;;;;;9.65;4.68;;;5.20;99.90;;;;;;2603520;54;20728;31
2023/03/08 10:43:59;;;;;;;8.02;4.32;;;5.20;99.90;;;;;;2603426;54;20072;31
2023/03/08 10:46:35;;;;;;;8.40;4.70;;;5.30;99.90;;;;;;2621717;46;21843;31
2023/03/08 10:49:17;;;;;;;9.45;5.32;;;5.40;99.90;;;;;;2603434;54;20023;31
2023/03/08 10:51:51;;;;;;;7.30;5.35;;;5.40;99.90;;;;;;2603265;54;20027;31
2023/03/08 10:54:27;;;;;;;10.88;5.35;;;5.40;99.90;;;;;;2603321;54;20058;31
2023/03/08 10:57:05;;;;;;;7.20;4.97;;;5.50;99.90;;;;;;2602503;54;20030;31
2023/03/08 10:59:44;;;;;;;8.95;6.03;;;5.60;99.90;;;;;;2701067;39;21342;31
2023/03/08 11:02:21;;;;;;;10.38;5.18;;;5.60;99.90;;;;;;2622093;46;20058;31
2023/03/08 11:04:57;;;;;;;8.35;5.80;;;5.60;99.90;;;;;;2603257;54;20027;31
2023/03/08 11:07:34;;;;;;;13.15;6.15;;;5.70;99.90;;;;;;2603204;54;20925;31
2023/03/08 11:10:09;;;;;;;11.20;6.68;;;5.70;99.90;;;;;;2603013;54;20036;31
2023/03/08 11:12:47;;;;;;;13.55;6.50;;;5.70;99.90;;;;;;2603354;54;20030;31
2023/03/08 11:15:21;;;;;;;8.73;6.20;;;5.70;99.90;;;;;;2603034;54;20877;31
2023/03/08 11:18:04;;;;;;;12.35;7.20;;;5.60;99.90;;;;;;2603217;54;20855;31
2023/03/08 11:20:44;;;;;;;11.80;7.00;;;5.60;99.90;;;;;;2701855;39;20396;31
2023/03/08 11:23:24;;;;;;;11.18;7.85;;;5.60;99.90;;;;;;2603321;54;20869;31
2023/03/08 11:26:01;;;;;;;14.93;9.50;;;5.50;99.90;;;;;;2604527;46;20866;31
2023/03/08 11:28:54;;;;;;;16.10;9.30;;;5.50;99.90;;;;;;2603156;54;20850;31
2023/03/08 11:31:35;;;;;;;15.82;9.63;;;5.40;99.90;;;;;;2603175;54;20089;31
2023/03/08 11:34:28;;;;;;;14.20;9.95;;;5.30;99.90;;;;;;2603474;54;20085;31
2023/03/08 11:37:11;;;;;;;13.05;10.00;;;5.20;99.90;;;;;;2603098;54;20046;31
2023/03/08 11:39:48;;;;;;;13.93;9.82;;;5.10;99.90;;;;;;2621353;47;20830;31
2023/03/08 11:42:27;;;;;;;14.82;10.38;;;5.00;99.90;;;;;;2603340;54;20034;31
2023/03/08 11:45:18;;;;;;;16.13;10.93;;;5.00;99.90;;;;;;2603056;54;20085;31
2023/03/08 11:48:14;;;;;;;13.17;10.17;;;4.90;99.90;;;;;;2621474;47;20959;31
2023/03/08 11:50:51;;;;;;;19.73;12.30;;;4.90;99.90;;;;;;2603072;54;20027;31
2023/03/08 11:53:37;;;;;;;16.83;10.37;;;4.80;99.90;;;;;;2621750;47;20094;31
2023/03/08 11:56:28;;;;;;;17.30;10.80;;;4.70;99.90;;;;;;2603350;54;20037;31
2023/03/08 11:59:05;;;;;;;13.32;8.73;;;4.60;99.90;;;;;;2603225;54;20271;31
2023/03/08 12:01:43;;;;;;;13.60;9.23;;;4.60;99.90;;;;;;2603204;54;20900;31
2023/03/08 12:04:27;;;;;;;18.38;10.43;;;4.60;99.90;;;;;;2602152;54;20910;31
2023/03/08 12:07:07;;;;;;;18.10;12.67;;;4.50;99.90;;;;;;2602728;54;20893;31
2023/03/08 12:09:53;;;;;;;31.30;15.95;;;4.60;99.90;;;;;;2719685;39;20388;31
2023/03/08 12:12:30;;;;;;;16.20;11.15;;;4.60;99.90;;;;;;2603074;54;20704;31
2023/03/08 12:15:09;;;;;;;16.63;11.65;;;4.70;99.90;;;;;;2621691;47;20031;31
2023/03/08 12:17:46;;;;;;;15.57;9.93;;;4.70;99.90;;;;;;2772816;31;20589;31
2023/03/08 12:20:23;;;;;;;12.05;8.05;;;4.80;99.90;;;;;;2602465;54;20825;31
2023/03/08 12:23:04;;;;;;;12.73;8.40;;;4.80;99.90;;;;;;2602871;54;20495;31
2023/03/08 12:25:43;;;;;;;14.20;9.70;;;4.70;99.90;;;;;;2701369;39;20370;31
2023/03/08 12:28:23;;;;;;;14.65;8.68;;;4.80;99.90;;;;;;2603404;54;20851;31
2023/03/08 12:31:05;;;;;;;13.55;8.00;;;4.70;99.90;;;;;;2622209;46;20042;31
2023/03/08 12:33:58;;;;;;;12.23;8.70;;;4.80;99.90;;;;;;2622284;46;20070;31
2023/03/08 12:36:40;;;;;;;13.52;8.45;;;4.70;99.90;;;;;;2603984;54;20046;31
2023/03/08 12:39:28;;;;;;;15.85;8.77;;;4.70;99.90;;;;;;2603743;54;20899;31
2023/03/08 12:42:02;;;;;;;11.88;7.72;;;4.80;99.90;;;;;;2603795;54;20982;31
2023/03/08 12:44:44;;;;;;;14.80;7.28;;;4.80;99.90;;;;;;2702606;39;21030;31
2023/03/08 12:47:24;;;;;;;10.05;6.95;;;4.70;99.90;;;;;;2604038;54;20027;31
2023/03/08 12:50:00;;;;;;;12.13;6.95;;;4.70;99.90;;;;;;2603655;54;20034;31
2023/03/08 12:52:36;;;;;;;13.23;7.22;;;4.70;99.90;;;;;;2603790;54;20098;31
2023/03/08 12:55:20;;;;;;;15.52;9.02;;;4.70;99.90;;;;;;2603853;54;20030;31
2023/03/08 12:57:57;;;;;;;17.35;9.45;;;4.80;99.90;;;;;;2603786;54;20090;31
2023/03/08 13:00:37;;;;;;;14.10;10.13;;;4.80;99.90;;;;;;2603811;54;20708;31
2023/03/08 13:03:12;;;;;;;14.93;10.75;;;4.80;99.90;;;;;;2603649;54;19942;31
2023/03/08 13:05:51;;;;;;;17.75;10.70;;;4.80;99.90;;;;;;2603874;54;20027;31
2023/03/08 13:08:34;;;;;;;12.55;9.02;;;4.80;99.90;;;;;;2603516;54;20027;31
2023/03/08 13:13:50;;;;;;;13.75;9.65;;;4.80;99.90;;;;;;2603066;54;20920;31
2023/03/08 13:16:37;;;;;;;15.77;11.18;;;4.80;99.90;;;;;;2602987;54;20964;31
2023/03/08 13:19:20;;;;;;;20.67;13.02;;;4.60;99.90;;;;;;2603546;54;20064;31
2023/03/08 13:22:01;;;;;;;13.35;9.13;;;4.70;99.90;;;;;;2603737;54;20660;31
2023/03/08 13:24:41;;;;;;;17.27;9.82;;;4.70;99.90;;;;;;2603853;54;19941;31
2023/03/08 13:27:27;;;;;;;15.27;10.70;;;4.70;99.90;;;;;;2622534;46;20085;31
2023/03/08 13:30:04;;;;;;;15.30;10.77;;;4.80;99.90;;;;;;2603779;54;20032;31
2023/03/08 13:32:42;;;;;;;21.67;16.20;;;4.80;99.90;;;;;;2603647;54;20969;31
2023/03/08 13:35:18;;;;;;;22.25;15.05;;;4.90;99.90;;;;;;2702094;39;20473;31
2023/03/08 13:37:57;;;;;;;17.70;13.35;;;4.90;99.90;;;;;;2622164;46;20842;31
2023/03/08 13:40:33;;;;;;;17.80;11.95;;;4.90;99.90;;;;;;2701273;39;20509;31
2023/03/08 13:43:10;;;;;;;16.25;11.05;;;4.90;99.90;;;;;;2603612;54;20912;31
2023/03/08 13:45:49;;;;;;;14.10;10.65;;;4.90;99.90;;;;;;2702281;39;20898;31
2023/03/08 13:48:28;;;;;;;;;;;4.90;99.90;;;;;;2603470;54;20830;31
2023/03/08 13:51:03;;;;;;;16.17;10.65;;;5.00;99.90;;;;;;2603498;54;19935;31
2023/03/08 13:53:42;;;;;;;16.60;10.60;;;5.00;99.90;;;;;;2603820;54;20018;31
2023/03/08 13:56:24;;;;;;;20.27;11.73;;;5.00;99.90;;;;;;2603811;54;20027;31
2023/03/08 13:59:02;;;;;;;17.00;11.48;;;5.00;99.90;;;;;;2603613;54;20030;31
2023/03/08 14:01:49;;;;;;;20.02;13.80;;;5.00;99.90;;;;;;2603309;54;20026;31
2023/03/08 14:07:06;;;;;;;16.17;11.00;;;5.00;99.90;;;;;;2603096;54;20026;31
2023/03/08 14:09:43;;;;;;;16.40;10.90;;;5.00;99.90;;;;;;2720703;39;20366;31
2023/03/08 14:12:22;;;;;;;16.65;11.75;;;5.00;99.90;;;;;;2603317;54;20869;31